Time;durP1;ratioP1;P1;durP2;ratioP2;P2;SDS_P1;SDS_P2;PMS_P1;PMS_P2;Temp;Humidity;BMP_temperature;BMP_pressure;BME280_temperature;BME280_humidity;BME280_pressure;Samples;Min_cycle;Max_cycle;Signal;HPM_P1;HPM_P2
2022/10/09 00:04:56;;;;;;;1.33;0.60;;;20.10;50.10;;;;;;20609567;28;20030;-75
2022/10/09 00:14:56;;;;;;;0.87;0.53;;;20.10;50.10;;;;;;20622330;28;20392;-75
2022/10/09 00:24:57;;;;;;;1.52;0.63;;;20.00;50.00;;;;;;20655352;28;20034;-77
2022/10/09 00:34:58;;;;;;;1.67;0.75;;;20.00;50.00;;;;;;20607905;28;20045;-76
2022/10/09 00:45:00;;;;;;;1.08;0.80;;;20.00;50.00;;;;;;20628538;28;20088;-76
2022/10/09 00:55:00;;;;;;;0.55;0.40;;;19.90;49.90;;;;;;20571145;28;1127732;-76
2022/10/09 01:05:01;;;;;;;0.57;0.50;;;19.90;49.90;;;;;;20624574;28;20463;-75
2022/10/09 01:15:08;;;;;;;1.17;0.60;;;19.90;49.90;;;;;;20625665;28;20448;-76
2022/10/09 01:25:13;;;;;;;1.38;0.55;;;19.90;50.00;;;;;;20639198;28;20039;-75
2022/10/09 01:35:14;;;;;;;1.00;0.50;;;19.80;49.90;;;;;;20551407;28;20173;-74
2022/10/09 01:45:15;;;;;;;2.35;0.40;;;19.80;49.90;;;;;;20609642;28;20150;-75
2022/10/09 01:55:40;;;;;;;1.67;0.60;;;19.80;49.80;;;;;;20912886;22;20042;-74
2022/10/09 02:05:41;;;;;;;0.85;0.50;;;19.80;49.90;;;;;;20560456;28;20042;-75
2022/10/09 02:16:06;;;;;;;1.15;0.47;;;19.70;49.80;;;;;;20543907;28;20055;-76
2022/10/09 02:26:07;;;;;;;1.83;0.60;;;19.70;49.90;;;;;;20574205;28;20077;-76
2022/10/09 02:36:08;;;;;;;1.40;0.55;;;19.60;49.90;;;;;;20602225;28;20039;-75
2022/10/09 02:46:09;;;;;;;1.63;0.70;;;19.60;49.90;;;;;;20594629;28;20038;-75
2022/10/09 02:56:09;;;;;;;0.50;0.30;;;19.50;49.90;;;;;;20621995;28;20106;-75
2022/10/09 03:06:12;;;;;;;0.93;0.33;;;19.50;49.90;;;;;;20554237;28;20031;-76
2022/10/09 03:16:14;;;;;;;1.48;0.50;;;19.50;49.90;;;;;;20543956;28;20325;-75
2022/10/09 03:26:17;;;;;;;1.35;0.50;;;19.50;49.90;;;;;;20607741;28;20425;-75
2022/10/09 03:36:17;;;;;;;2.70;0.50;;;19.50;49.90;;;;;;20600451;28;20045;-74
2022/10/09 03:46:18;;;;;;;0.95;0.60;;;19.40;49.80;;;;;;20551695;28;20117;-74
2022/10/09 03:56:19;;;;;;;0.75;0.47;;;19.40;49.80;;;;;;20534434;28;20199;-74
2022/10/09 04:06:19;;;;;;;3.57;0.60;;;19.40;49.80;;;;;;20546925;28;20097;-75
2022/10/09 04:16:20;;;;;;;1.27;0.53;;;19.30;49.70;;;;;;20557416;28;20088;-75
2022/10/09 04:26:20;;;;;;;2.17;0.67;;;19.30;49.70;;;;;;20532269;28;20130;-75
2022/10/09 04:36:21;;;;;;;0.57;0.50;;;19.30;49.60;;;;;;20531883;28;21122;-75
2022/10/09 04:46:22;;;;;;;0.57;0.47;;;19.20;49.60;;;;;;20587289;28;20567;-75
2022/10/09 04:56:23;;;;;;;1.13;0.50;;;19.20;49.50;;;;;;20611435;28;20395;-76
2022/10/09 05:06:24;;;;;;;0.43;0.37;;;19.20;49.50;;;;;;20540821;28;20118;-76
2022/10/09 05:16:26;;;;;;;0.90;0.50;;;19.10;49.50;;;;;;20546393;28;21002;-76
2022/10/09 05:26:27;;;;;;;0.85;0.75;;;19.10;49.50;;;;;;20608929;28;20038;-75
2022/10/09 05:36:27;;;;;;;0.40;0.40;;;19.10;49.40;;;;;;20576926;28;20049;-75
2022/10/09 05:46:31;;;;;;;1.45;0.40;;;19.00;49.40;;;;;;20531566;28;20023;-77
2022/10/09 05:56:37;;;;;;;0.85;0.50;;;19.00;49.40;;;;;;20538861;28;20122;-84
2022/10/09 06:06:39;;;;;;;0.95;0.43;;;19.00;49.40;;;;;;20593720;28;20181;-79
2022/10/09 06:16:41;;;;;;;1.20;0.45;;;19.00;49.40;;;;;;20625797;28;20128;-78
2022/10/09 06:26:41;;;;;;;1.52;0.50;;;19.00;49.40;;;;;;20603861;28;20039;-76
2022/10/09 06:36:42;;;;;;;1.60;0.43;;;18.90;49.40;;;;;;20561941;28;20612;-72
2022/10/09 06:46:43;;;;;;;1.05;0.50;;;18.90;49.50;;;;;;20570809;28;20430;-75
2022/10/09 06:56:44;;;;;;;1.13;0.57;;;18.90;49.60;;;;;;20555340;28;20046;-75
2022/10/09 07:06:46;;;;;;;1.45;0.45;;;18.90;49.70;;;;;;20531488;28;20548;-81
2022/10/09 07:16:47;;;;;;;2.08;0.45;;;18.90;49.80;;;;;;20570389;28;20078;-74
2022/10/09 07:26:48;;;;;;;1.13;0.60;;;18.80;49.90;;;;;;20586220;28;20069;-73
2022/10/09 07:36:49;;;;;;;0.68;0.50;;;18.80;50.10;;;;;;20509437;28;20043;-74
2022/10/09 07:46:50;;;;;;;0.90;0.67;;;18.80;50.20;;;;;;20562057;28;20035;-73
2022/10/09 07:56:52;;;;;;;1.95;0.50;;;18.80;50.40;;;;;;20538581;28;20309;-76
2022/10/09 08:06:52;;;;;;;3.53;0.50;;;18.80;50.50;;;;;;20550202;28;20066;-76
2022/10/09 08:16:54;;;;;;;1.10;0.43;;;18.90;50.60;;;;;;20494305;28;20043;-77
2022/10/09 08:26:55;;;;;;;1.55;0.45;;;18.90;50.60;;;;;;20529751;28;20039;-78
2022/10/09 08:36:56;;;;;;;2.20;0.50;;;19.00;50.60;;;;;;20522101;28;20038;-77
2022/10/09 08:46:58;;;;;;;7.00;0.70;;;19.10;50.50;;;;;;20562593;28;20117;-77
2022/10/09 08:57:01;;;;;;;4.93;0.63;;;19.10;50.50;;;;;;20563467;28;20031;-76
2022/10/09 09:07:32;;;;;;;3.53;0.47;;;19.30;50.40;;;;;;20541220;28;20462;-76
2022/10/09 09:17:57;;;;;;;2.22;0.40;;;19.40;50.10;;;;;;20521723;28;20051;-74
2022/10/09 09:28:00;;;;;;;2.17;0.60;;;19.50;50.00;;;;;;20604324;28;20239;-74
2022/10/09 09:38:01;;;;;;;1.77;0.50;;;19.70;49.70;;;;;;20568272;28;20046;-74
2022/10/09 09:48:14;;;;;;;1.10;0.60;;;19.80;49.50;;;;;;20576747;28;20090;-75
2022/10/09 09:58:16;;;;;;;1.35;0.57;;;20.00;49.20;;;;;;20542620;28;20405;-77
2022/10/09 10:08:29;;;;;;;0.93;0.50;;;20.00;49.00;;;;;;20649152;28;20039;-79
2022/10/09 10:18:35;;;;;;;1.05;0.70;;;20.20;48.70;;;;;;20497709;29;20076;-72
2022/10/09 10:29:11;;;;;;;1.55;0.40;;;20.40;48.50;;;;;;20523689;28;20458;-72
2022/10/09 10:39:16;;;;;;;2.00;0.45;;;20.50;48.10;;;;;;20589720;28;20061;-74
2022/10/09 10:49:19;;;;;;;1.73;0.60;;;20.60;47.80;;;;;;20640445;28;20049;-77
2022/10/09 10:59:39;;;;;;;0.52;0.28;;;20.70;47.50;;;;;;20649264;28;20058;-79
2022/10/09 11:10:01;;;;;;;0.40;0.40;;;20.80;47.20;;;;;;20609891;28;20035;-81
2022/10/09 11:20:19;;;;;;;0.85;0.40;;;20.90;47.00;;;;;;20585739;28;20042;-79
2022/10/09 11:30:19;;;;;;;0.85;0.43;;;21.00;46.80;;;;;;20566883;28;20078;-77
2022/10/09 11:40:23;;;;;;;0.93;0.40;;;21.10;46.70;;;;;;20569180;28;20066;-73
2022/10/09 11:51:00;;;;;;;1.20;0.40;;;21.20;46.40;;;;;;20551431;28;20043;-73
2022/10/09 12:01:21;;;;;;;0.57;0.43;;;21.10;46.50;;;;;;20490199;28;20484;-74
2022/10/09 12:11:21;;;;;;;1.73;0.40;;;20.60;47.40;;;;;;20630682;28;20066;-76
2022/10/09 12:21:31;;;;;;;0.90;0.40;;;20.20;48.10;;;;;;20614197;28;20076;-75
2022/10/09 12:31:36;;;;;;;2.58;0.50;;;19.90;48.80;;;;;;20602981;28;20030;-75
2022/10/09 12:41:37;;;;;;;1.17;0.28;;;19.90;49.10;;;;;;20547946;28;20048;-76
2022/10/09 12:51:38;;;;;;;0.63;0.30;;;19.90;49.10;;;;;;20632965;28;20484;-78
2022/10/09 13:01:39;;;;;;;1.50;0.40;;;19.90;49.00;;;;;;20566021;28;20121;-79
2022/10/09 13:11:41;;;;;;;0.32;0.28;;;20.00;49.00;;;;;;20535671;28;20304;-77
2022/10/09 13:21:42;;;;;;;1.05;0.40;;;20.00;48.90;;;;;;20567104;28;20039;-79
2022/10/09 13:31:43;;;;;;;1.40;0.50;;;20.10;48.80;;;;;;20566792;28;20109;-79
2022/10/09 13:41:43;;;;;;;1.98;0.35;;;20.20;48.60;;;;;;20581959;28;20089;-78
2022/10/09 13:51:44;;;;;;;0.20;0.20;;;20.30;48.40;;;;;;20521818;28;20035;-79
2022/10/09 14:01:45;;;;;;;0.60;0.30;;;20.40;48.20;;;;;;20510854;28;20037;-77
2022/10/09 14:11:47;;;;;;;1.77;0.40;;;20.50;48.10;;;;;;20616721;28;20026;-77
2022/10/09 14:21:48;;;;;;;0.25;0.20;;;20.70;48.00;;;;;;20624023;28;20643;-77
2022/10/09 14:31:51;;;;;;;1.05;0.40;;;20.60;47.90;;;;;;20577949;28;20066;-83
2022/10/09 14:41:52;;;;;;;0.40;0.20;;;20.70;47.80;;;;;;20558528;28;20038;-76
2022/10/09 14:51:53;;;;;;;2.37;0.93;;;20.70;47.80;;;;;;20604306;28;20142;-75
2022/10/09 15:01:53;;;;;;;1.13;0.30;;;20.70;47.80;;;;;;20558042;28;20334;-74
2022/10/09 15:11:54;;;;;;;0.32;0.20;;;20.80;47.90;;;;;;20556300;28;20027;-77
2022/10/09 15:21:55;;;;;;;0.50;0.30;;;20.70;48.00;;;;;;20559485;28;20042;-79
2022/10/09 15:31:56;;;;;;;0.88;0.43;;;20.80;48.10;;;;;;20574681;28;20196;-75
2022/10/09 15:41:56;;;;;;;0.22;0.17;;;20.80;48.00;;;;;;20603071;28;20038;-76
2022/10/09 15:51:57;;;;;;;0.15;0.10;;;20.90;47.90;;;;;;20535295;28;20043;-78
2022/10/09 16:01:57;;;;;;;0.57;0.22;;;20.90;48.00;;;;;;20573335;28;20034;-75
2022/10/09 16:11:58;;;;;;;0.10;0.10;;;20.80;47.90;;;;;;20648623;28;20381;-76
2022/10/09 16:21:59;;;;;;;0.97;0.30;;;20.90;48.10;;;;;;20583900;28;20119;-77
2022/10/09 16:31:59;;;;;;;0.50;0.20;;;20.80;48.10;;;;;;20569312;28;20717;-77
2022/10/09 16:42:02;;;;;;;0.40;0.40;;;20.70;48.20;;;;;;20593321;28;20503;-82
2022/10/09 16:52:03;;;;;;;2.92;0.20;;;20.70;48.30;;;;;;20568778;28;20432;-80
2022/10/09 17:02:03;;;;;;;0.52;0.20;;;20.60;48.30;;;;;;20552777;28;20038;-75
2022/10/09 17:12:04;;;;;;;0.30;0.17;;;20.60;48.60;;;;;;20551670;28;20022;-77
2022/10/09 17:22:05;;;;;;;1.50;0.52;;;20.50;48.70;;;;;;20503062;28;20030;-77
2022/10/09 17:32:08;;;;;;;1.70;0.60;;;20.40;48.80;;;;;;20616035;28;20034;-78
2022/10/09 17:42:08;;;;;;;1.20;0.68;;;20.30;48.80;;;;;;20617164;28;20297;-78
2022/10/09 17:52:09;;;;;;;0.45;0.40;;;20.30;49.00;;;;;;20560692;28;20045;-77
2022/10/09 18:02:09;;;;;;;0.47;0.33;;;20.30;49.00;;;;;;20592747;28;20057;-76
2022/10/09 18:12:10;;;;;;;1.58;0.38;;;20.40;49.00;;;;;;20614121;28;20314;-77
2022/10/09 18:22:11;;;;;;;2.17;0.43;;;20.20;49.00;;;;;;20580770;28;20049;-83
2022/10/09 18:32:11;;;;;;;0.67;0.30;;;20.20;49.00;;;;;;20563758;28;20282;-79
2022/10/09 18:42:12;;;;;;;2.03;0.45;;;20.20;49.00;;;;;;20582765;28;20038;-77
2022/10/09 18:52:13;;;;;;;3.17;0.30;;;20.20;49.10;;;;;;20637261;28;20180;-79
2022/10/09 19:02:13;;;;;;;0.50;0.20;;;20.10;49.00;;;;;;20541577;28;20309;-79
2022/10/09 19:12:15;;;;;;;1.03;0.40;;;20.10;49.10;;;;;;20572818;28;20486;-76
2022/10/09 19:22:16;;;;;;;2.97;0.15;;;20.10;49.10;;;;;;20608933;28;20049;-74
2022/10/09 19:32:17;;;;;;;0.67;0.30;;;20.10;49.20;;;;;;20600429;28;20396;-74
2022/10/09 19:42:18;;;;;;;0.35;0.25;;;20.10;49.20;;;;;;20563981;28;20054;-74
2022/10/09 19:52:19;;;;;;;0.73;0.30;;;20.00;49.30;;;;;;20551119;28;20034;-74
2022/10/09 20:02:19;;;;;;;0.47;0.17;;;20.00;49.20;;;;;;20526690;28;20039;-75
2022/10/09 20:12:20;;;;;;;0.40;0.30;;;20.00;49.30;;;;;;20502269;28;20047;-75
2022/10/09 20:22:21;;;;;;;1.20;0.40;;;20.00;49.40;;;;;;20470413;29;20123;-74
2022/10/09 20:32:23;;;;;;;0.20;0.20;;;20.00;49.40;;;;;;20543047;28;20301;-75
2022/10/09 20:42:24;;;;;;;0.50;0.30;;;19.90;49.40;;;;;;20603734;28;20867;-75
2022/10/09 20:52:25;;;;;;;0.90;0.40;;;19.90;49.50;;;;;;20645106;28;20081;-75
2022/10/09 21:02:25;;;;;;;1.05;0.40;;;19.90;49.60;;;;;;20547858;28;20129;-74
2022/10/09 21:12:26;;;;;;;0.60;0.30;;;19.90;49.60;;;;;;20562659;28;20433;-73
2022/10/09 21:22:26;;;;;;;0.65;0.40;;;19.80;49.60;;;;;;20582153;28;20693;-74
2022/10/09 21:32:27;;;;;;;1.10;0.32;;;19.80;49.60;;;;;;20578579;28;20031;-73
2022/10/09 21:42:28;;;;;;;1.15;0.50;;;19.80;49.60;;;;;;20546183;28;20035;-74
2022/10/09 21:52:28;;;;;;;3.10;0.40;;;19.70;49.60;;;;;;20576453;28;20065;-74
2022/10/09 22:02:29;;;;;;;2.75;0.50;;;19.70;49.70;;;;;;20600144;28;20663;-73
2022/10/09 22:12:29;;;;;;;0.80;0.22;;;19.80;49.70;;;;;;20651603;28;21043;-74
2022/10/09 22:22:30;;;;;;;0.75;0.38;;;19.70;49.70;;;;;;20590433;28;20097;-74
2022/10/09 22:32:31;;;;;;;1.13;0.50;;;19.70;49.70;;;;;;20542374;28;20447;-74
2022/10/09 22:42:32;;;;;;;0.30;0.20;;;19.70;49.70;;;;;;20557217;28;20294;-73
2022/10/09 22:52:33;;;;;;;0.93;0.40;;;19.70;49.80;;;;;;20556365;28;20108;-73
2022/10/09 23:02:33;;;;;;;0.83;0.50;;;19.70;49.80;;;;;;20540885;28;20031;-74
2022/10/09 23:12:34;;;;;;;0.98;0.40;;;19.70;49.70;;;;;;20573239;28;20125;-74
2022/10/09 23:22:35;;;;;;;1.40;0.50;;;19.60;49.70;;;;;;20595738;28;20088;-74
2022/10/09 23:32:36;;;;;;;0.82;0.40;;;19.60;49.70;;;;;;20586734;28;20290;-73
2022/10/09 23:42:36;;;;;;;2.97;0.50;;;19.60;49.70;;;;;;20569913;28;20045;-73
2022/10/09 23:52:37;;;;;;;1.02;0.40;;;19.60;49.70;;;;;;20565889;28;20035;-74
